sensor_id;sensor_type;location;lat;lon;timestamp;P1;P2;P0
70436;PMS5003;57877;39.750;-104.894;2023-08-06T00:01:10;1;1;
70436;PMS5003;57877;39.750;-104.894;2023-08-06T00:03:35;1;1;
70436;PMS5003;57877;39.750;-104.894;2023-08-06T00:06:00;1;1;
70436;PMS5003;57877;39.750;-104.894;2023-08-06T00:08:25;0;0;
70436;PMS5003;57877;39.750;-104.894;2023-08-06T00:10:50;2;1;
70436;PMS5003;57877;39.750;-104.894;2023-08-06T00:13:15;1;1;
70436;PMS5003;57877;39.750;-104.894;2023-08-06T00:15:40;1;1;
70436;PMS5003;57877;39.750;-104.894;2023-08-06T00:18:05;1;1;
70436;PMS5003;57877;39.750;-104.894;2023-08-06T00:20:30;2;1;
70436;PMS5003;57877;39.750;-104.894;2023-08-06T00:22:55;0;0;
70436;PMS5003;57877;39.750;-104.894;2023-08-06T00:25:20;1;1;
70436;PMS5003;57877;39.750;-104.894;2023-08-06T00:27:45;0;0;
70436;PMS5003;57877;39.750;-104.894;2023-08-06T00:30:10;2;2;
70436;PMS5003;57877;39.750;-104.894;2023-08-06T00:32:35;1;1;
70436;PMS5003;57877;39.750;-104.894;2023-08-06T00:35:00;0;0;
70436;PMS5003;57877;39.750;-104.894;2023-08-06T00:37:25;1;0;
70436;PMS5003;57877;39.750;-104.894;2023-08-06T00:39:50;0;0;
70436;PMS5003;57877;39.750;-104.894;2023-08-06T00:42:15;0;0;
70436;PMS5003;57877;39.750;-104.894;2023-08-06T00:44:41;0;0;
70436;PMS5003;57877;39.750;-104.894;2023-08-06T00:47:06;1;1;
70436;PMS5003;57877;39.750;-104.894;2023-08-06T00:49:31;0;0;
70436;PMS5003;57877;39.750;-104.894;2023-08-06T00:51:56;0;0;
70436;PMS5003;57877;39.750;-104.894;2023-08-06T00:54:21;0;0;
70436;PMS5003;57877;39.750;-104.894;2023-08-06T00:56:46;0;0;
70436;PMS5003;57877;39.750;-104.894;2023-08-06T00:59:11;1;0;
70436;PMS5003;57877;39.750;-104.894;2023-08-06T01:01:36;0;0;
70436;PMS5003;57877;39.750;-104.894;2023-08-06T01:04:01;0;0;
70436;PMS5003;57877;39.750;-104.894;2023-08-06T01:06:29;0;0;
70436;PMS5003;57877;39.750;-104.894;2023-08-06T01:08:53;0;0;
70436;PMS5003;57877;39.750;-104.894;2023-08-06T01:11:19;0;0;
70436;PMS5003;57877;39.750;-104.894;2023-08-06T01:13:42;0;0;
70436;PMS5003;57877;39.750;-104.894;2023-08-06T01:16:06;1;1;
70436;PMS5003;57877;39.750;-104.894;2023-08-06T01:18:31;0;0;
70436;PMS5003;57877;39.750;-104.894;2023-08-06T01:20:56;0;0;
70436;PMS5003;57877;39.750;-104.894;2023-08-06T01:23:21;1;1;
70436;PMS5003;57877;39.750;-104.894;2023-08-06T01:25:48;1;1;
70436;PMS5003;57877;39.750;-104.894;2023-08-06T01:28:17;0;0;
70436;PMS5003;57877;39.750;-104.894;2023-08-06T01:30:38;0;0;
70436;PMS5003;57877;39.750;-104.894;2023-08-06T01:33:04;0;0;
70436;PMS5003;57877;39.750;-104.894;2023-08-06T01:35:27;0;0;
70436;PMS5003;57877;39.750;-104.894;2023-08-06T01:37:52;0;0;
70436;PMS5003;57877;39.750;-104.894;2023-08-06T01:40:17;1;1;
70436;PMS5003;57877;39.750;-104.894;2023-08-06T01:42:42;0;0;
70436;PMS5003;57877;39.750;-104.894;2023-08-06T01:45:08;0;0;
70436;PMS5003;57877;39.750;-104.894;2023-08-06T01:47:32;1;0;
70436;PMS5003;57877;39.750;-104.894;2023-08-06T01:49:58;0;0;
70436;PMS5003;57877;39.750;-104.894;2023-08-06T01:52:23;0;0;
70436;PMS5003;57877;39.750;-104.894;2023-08-06T01:54:48;1;1;
70436;PMS5003;57877;39.750;-104.894;2023-08-06T01:57:12;2;2;
70436;PMS5003;57877;39.750;-104.894;2023-08-06T01:59:38;3;2;
70436;PMS5003;57877;39.750;-104.894;2023-08-06T02:02:03;1;1;
70436;PMS5003;57877;39.750;-104.894;2023-08-06T02:04:28;0;0;
70436;PMS5003;57877;39.750;-104.894;2023-08-06T02:06:53;1;0;
70436;PMS5003;57877;39.750;-104.894;2023-08-06T02:09:18;0;0;
70436;PMS5003;57877;39.750;-104.894;2023-08-06T02:11:43;0;0;
70436;PMS5003;57877;39.750;-104.894;2023-08-06T02:14:08;1;1;
70436;PMS5003;57877;39.750;-104.894;2023-08-06T02:16:33;0;0;
70436;PMS5003;57877;39.750;-104.894;2023-08-06T02:18:58;0;0;
70436;PMS5003;57877;39.750;-104.894;2023-08-06T02:21:23;0;0;
70436;PMS5003;57877;39.750;-104.894;2023-08-06T02:23:48;0;0;
70436;PMS5003;57877;39.750;-104.894;2023-08-06T02:26:13;0;0;
70436;PMS5003;57877;39.750;-104.894;2023-08-06T02:28:38;1;0;
70436;PMS5003;57877;39.750;-104.894;2023-08-06T02:31:03;1;1;
70436;PMS5003;57877;39.750;-104.894;2023-08-06T02:33:29;1;0;
70436;PMS5003;57877;39.750;-104.894;2023-08-06T02:35:58;3;3;
70436;PMS5003;57877;39.750;-104.894;2023-08-06T02:38:19;2;1;
70436;PMS5003;57877;39.750;-104.894;2023-08-06T02:40:44;2;2;
70436;PMS5003;57877;39.750;-104.894;2023-08-06T02:43:10;2;1;
70436;PMS5003;57877;39.750;-104.894;2023-08-06T02:45:36;2;2;
70436;PMS5003;57877;39.750;-104.894;2023-08-06T02:48:02;1;1;
70436;PMS5003;57877;39.750;-104.894;2023-08-06T02:50:28;2;2;
70436;PMS5003;57877;39.750;-104.894;2023-08-06T02:52:53;3;3;
70436;PMS5003;57877;39.750;-104.894;2023-08-06T02:55:18;3;3;
70436;PMS5003;57877;39.750;-104.894;2023-08-06T02:57:45;2;2;
70436;PMS5003;57877;39.750;-104.894;2023-08-06T03:00:10;2;2;
70436;PMS5003;57877;39.750;-104.894;2023-08-06T03:02:34;3;3;
70436;PMS5003;57877;39.750;-104.894;2023-08-06T03:04:59;3;3;
70436;PMS5003;57877;39.750;-104.894;2023-08-06T03:07:25;2;2;
70436;PMS5003;57877;39.750;-104.894;2023-08-06T03:09:49;3;3;
70436;PMS5003;57877;39.750;-104.894;2023-08-06T03:12:15;0;0;
70436;PMS5003;57877;39.750;-104.894;2023-08-06T03:14:41;3;2;
70436;PMS5003;57877;39.750;-104.894;2023-08-06T03:17:05;3;3;
70436;PMS5003;57877;39.750;-104.894;2023-08-06T03:19:30;2;1;
70436;PMS5003;57877;39.750;-104.894;2023-08-06T03:21:56;1;1;
70436;PMS5003;57877;39.750;-104.894;2023-08-06T03:24:21;2;2;
70436;PMS5003;57877;39.750;-104.894;2023-08-06T03:26:45;3;3;
70436;PMS5003;57877;39.750;-104.894;2023-08-06T03:29:11;1;1;
70436;PMS5003;57877;39.750;-104.894;2023-08-06T03:31:36;3;3;
70436;PMS5003;57877;39.750;-104.894;2023-08-06T03:34:02;1;1;
70436;PMS5003;57877;39.750;-104.894;2023-08-06T03:36:27;4;3;
70436;PMS5003;57877;39.750;-104.894;2023-08-06T03:38:53;2;1;
70436;PMS5003;57877;39.750;-104.894;2023-08-06T03:41:19;2;2;
70436;PMS5003;57877;39.750;-104.894;2023-08-06T03:43:45;0;0;
70436;PMS5003;57877;39.750;-104.894;2023-08-06T03:46:10;2;0;
70436;PMS5003;57877;39.750;-104.894;2023-08-06T03:48:36;2;1;
70436;PMS5003;57877;39.750;-104.894;2023-08-06T03:51:02;1;1;
70436;PMS5003;57877;39.750;-104.894;2023-08-06T03:53:27;0;0;
70436;PMS5003;57877;39.750;-104.894;2023-08-06T03:55:52;1;1;
70436;PMS5003;57877;39.750;-104.894;2023-08-06T03:58:18;0;0;
70436;PMS5003;57877;39.750;-104.894;2023-08-06T04:00:43;0;0;
70436;PMS5003;57877;39.750;-104.894;2023-08-06T04:03:09;0;0;
70436;PMS5003;57877;39.750;-104.894;2023-08-06T04:05:34;1;0;
70436;PMS5003;57877;39.750;-104.894;2023-08-06T04:08:00;0;0;
70436;PMS5003;57877;39.750;-104.894;2023-08-06T04:10:26;0;0;
70436;PMS5003;57877;39.750;-104.894;2023-08-06T04:12:51;0;0;
70436;PMS5003;57877;39.750;-104.894;2023-08-06T04:15:17;0;0;
70436;PMS5003;57877;39.750;-104.894;2023-08-06T04:17:43;0;0;
70436;PMS5003;57877;39.750;-104.894;2023-08-06T04:20:08;0;0;
70436;PMS5003;57877;39.750;-104.894;2023-08-06T04:22:33;0;0;
70436;PMS5003;57877;39.750;-104.894;2023-08-06T04:24:59;0;0;
70436;PMS5003;57877;39.750;-104.894;2023-08-06T04:27:25;0;0;
70436;PMS5003;57877;39.750;-104.894;2023-08-06T04:29:51;0;0;
70436;PMS5003;57877;39.750;-104.894;2023-08-06T04:32:17;0;0;
70436;PMS5003;57877;39.750;-104.894;2023-08-06T04:34:43;0;0;
70436;PMS5003;57877;39.750;-104.894;2023-08-06T04:37:09;0;0;
70436;PMS5003;57877;39.750;-104.894;2023-08-06T04:39:35;0;0;
70436;PMS5003;57877;39.750;-104.894;2023-08-06T04:42:01;0;0;
70436;PMS5003;57877;39.750;-104.894;2023-08-06T04:44:26;0;0;
70436;PMS5003;57877;39.750;-104.894;2023-08-06T04:46:51;0;0;
70436;PMS5003;57877;39.750;-104.894;2023-08-06T04:49:17;1;0;
70436;PMS5003;57877;39.750;-104.894;2023-08-06T04:51:43;0;0;
70436;PMS5003;57877;39.750;-104.894;2023-08-06T04:54:08;0;0;
70436;PMS5003;57877;39.750;-104.894;2023-08-06T04:56:33;0;0;
70436;PMS5003;57877;39.750;-104.894;2023-08-06T04:58:58;0;0;
70436;PMS5003;57877;39.750;-104.894;2023-08-06T05:01:23;0;0;
70436;PMS5003;57877;39.750;-104.894;2023-08-06T05:03:48;0;0;
70436;PMS5003;57877;39.750;-104.894;2023-08-06T05:06:13;0;0;
70436;PMS5003;57877;39.750;-104.894;2023-08-06T05:08:40;0;0;
70436;PMS5003;57877;39.750;-104.894;2023-08-06T05:11:05;0;0;
70436;PMS5003;57877;39.750;-104.894;2023-08-06T05:13:31;0;0;
70436;PMS5003;57877;39.750;-104.894;2023-08-06T05:15:57;0;0;
70436;PMS5003;57877;39.750;-104.894;2023-08-06T05:18:23;0;0;
70436;PMS5003;57877;39.750;-104.894;2023-08-06T05:20:49;0;0;
70436;PMS5003;57877;39.750;-104.894;2023-08-06T05:23:15;0;0;
70436;PMS5003;57877;39.750;-104.894;2023-08-06T05:25:42;0;0;
70436;PMS5003;57877;39.750;-104.894;2023-08-06T05:28:07;0;0;
70436;PMS5003;57877;39.750;-104.894;2023-08-06T05:30:33;0;0;
70436;PMS5003;57877;39.750;-104.894;2023-08-06T05:32:59;0;0;
70436;PMS5003;57877;39.750;-104.894;2023-08-06T05:35:25;0;0;
70436;PMS5003;57877;39.750;-104.894;2023-08-06T05:37:51;0;0;
70436;PMS5003;57877;39.750;-104.894;2023-08-06T05:40:17;0;0;
70436;PMS5003;57877;39.750;-104.894;2023-08-06T05:42:43;1;0;
70436;PMS5003;57877;39.750;-104.894;2023-08-06T05:45:10;0;0;
70436;PMS5003;57877;39.750;-104.894;2023-08-06T05:47:35;0;0;
70436;PMS5003;57877;39.750;-104.894;2023-08-06T05:50:01;0;0;
70436;PMS5003;57877;39.750;-104.894;2023-08-06T05:52:27;0;0;
70436;PMS5003;57877;39.750;-104.894;2023-08-06T05:54:53;0;0;
70436;PMS5003;57877;39.750;-104.894;2023-08-06T05:57:19;0;0;
70436;PMS5003;57877;39.750;-104.894;2023-08-06T05:59:45;0;0;
70436;PMS5003;57877;39.750;-104.894;2023-08-06T06:02:11;0;0;
70436;PMS5003;57877;39.750;-104.894;2023-08-06T06:04:37;0;0;
70436;PMS5003;57877;39.750;-104.894;2023-08-06T06:07:03;0;0;
70436;PMS5003;57877;39.750;-104.894;2023-08-06T06:09:29;0;0;
70436;PMS5003;57877;39.750;-104.894;2023-08-06T06:11:55;0;0;
70436;PMS5003;57877;39.750;-104.894;2023-08-06T06:14:21;0;0;
70436;PMS5003;57877;39.750;-104.894;2023-08-06T06:16:47;0;0;
70436;PMS5003;57877;39.750;-104.894;2023-08-06T06:19:13;0;0;
70436;PMS5003;57877;39.750;-104.894;2023-08-06T06:21:39;0;0;
70436;PMS5003;57877;39.750;-104.894;2023-08-06T06:24:05;0;0;
70436;PMS5003;57877;39.750;-104.894;2023-08-06T06:26:31;0;0;
70436;PMS5003;57877;39.750;-104.894;2023-08-06T06:28:57;0;0;
70436;PMS5003;57877;39.750;-104.894;2023-08-06T06:31:23;0;0;
70436;PMS5003;57877;39.750;-104.894;2023-08-06T06:33:49;0;0;
70436;PMS5003;57877;39.750;-104.894;2023-08-06T06:36:15;0;0;
70436;PMS5003;57877;39.750;-104.894;2023-08-06T06:38:41;0;0;
70436;PMS5003;57877;39.750;-104.894;2023-08-06T06:41:07;0;0;
70436;PMS5003;57877;39.750;-104.894;2023-08-06T06:43:33;0;0;
70436;PMS5003;57877;39.750;-104.894;2023-08-06T06:45:59;0;0;
70436;PMS5003;57877;39.750;-104.894;2023-08-06T06:48:26;0;0;
70436;PMS5003;57877;39.750;-104.894;2023-08-06T06:50:51;0;0;
70436;PMS5003;57877;39.750;-104.894;2023-08-06T06:53:17;0;0;
70436;PMS5003;57877;39.750;-104.894;2023-08-06T06:55:43;0;0;
70436;PMS5003;57877;39.750;-104.894;2023-08-06T06:58:09;0;0;
70436;PMS5003;57877;39.750;-104.894;2023-08-06T07:00:35;0;0;
70436;PMS5003;57877;39.750;-104.894;2023-08-06T07:03:01;0;0;
70436;PMS5003;57877;39.750;-104.894;2023-08-06T07:05:27;0;0;
70436;PMS5003;57877;39.750;-104.894;2023-08-06T07:07:53;0;0;
70436;PMS5003;57877;39.750;-104.894;2023-08-06T07:10:19;0;0;
70436;PMS5003;57877;39.750;-104.894;2023-08-06T07:12:45;0;0;
70436;PMS5003;57877;39.750;-104.894;2023-08-06T07:15:11;0;0;
70436;PMS5003;57877;39.750;-104.894;2023-08-06T07:17:37;0;0;
70436;PMS5003;57877;39.750;-104.894;2023-08-06T07:20:03;0;0;
70436;PMS5003;57877;39.750;-104.894;2023-08-06T07:22:29;0;0;
70436;PMS5003;57877;39.750;-104.894;2023-08-06T07:24:55;0;0;
70436;PMS5003;57877;39.750;-104.894;2023-08-06T07:27:21;0;0;
70436;PMS5003;57877;39.750;-104.894;2023-08-06T07:29:47;0;0;
70436;PMS5003;57877;39.750;-104.894;2023-08-06T07:32:13;0;0;
70436;PMS5003;57877;39.750;-104.894;2023-08-06T07:34:39;0;0;
70436;PMS5003;57877;39.750;-104.894;2023-08-06T07:37:05;0;0;
70436;PMS5003;57877;39.750;-104.894;2023-08-06T07:39:31;0;0;
70436;PMS5003;57877;39.750;-104.894;2023-08-06T07:41:57;0;0;
70436;PMS5003;57877;39.750;-104.894;2023-08-06T07:44:23;0;0;
70436;PMS5003;57877;39.750;-104.894;2023-08-06T07:46:49;0;0;
70436;PMS5003;57877;39.750;-104.894;2023-08-06T07:49:15;0;0;
70436;PMS5003;57877;39.750;-104.894;2023-08-06T07:51:41;0;0;
70436;PMS5003;57877;39.750;-104.894;2023-08-06T07:54:08;0;0;
70436;PMS5003;57877;39.750;-104.894;2023-08-06T07:56:33;0;0;
70436;PMS5003;57877;39.750;-104.894;2023-08-06T07:58:59;0;0;
70436;PMS5003;57877;39.750;-104.894;2023-08-06T08:01:25;0;0;
70436;PMS5003;57877;39.750;-104.894;2023-08-06T08:03:51;0;0;
70436;PMS5003;57877;39.750;-104.894;2023-08-06T08:06:17;0;0;
70436;PMS5003;57877;39.750;-104.894;2023-08-06T08:08:43;0;0;
70436;PMS5003;57877;39.750;-104.894;2023-08-06T08:11:09;0;0;
70436;PMS5003;57877;39.750;-104.894;2023-08-06T08:13:35;0;0;
70436;PMS5003;57877;39.750;-104.894;2023-08-06T08:16:01;0;0;
70436;PMS5003;57877;39.750;-104.894;2023-08-06T08:18:27;0;0;
70436;PMS5003;57877;39.750;-104.894;2023-08-06T08:20:53;0;0;
70436;PMS5003;57877;39.750;-104.894;2023-08-06T08:23:20;0;0;
70436;PMS5003;57877;39.750;-104.894;2023-08-06T08:25:45;0;0;
70436;PMS5003;57877;39.750;-104.894;2023-08-06T08:28:11;0;0;
70436;PMS5003;57877;39.750;-104.894;2023-08-06T08:30:37;0;0;
70436;PMS5003;57877;39.750;-104.894;2023-08-06T08:33:03;0;0;
70436;PMS5003;57877;39.750;-104.894;2023-08-06T08:35:29;0;0;
70436;PMS5003;57877;39.750;-104.894;2023-08-06T08:37:55;0;0;
70436;PMS5003;57877;39.750;-104.894;2023-08-06T08:40:21;0;0;
70436;PMS5003;57877;39.750;-104.894;2023-08-06T08:42:47;0;0;
70436;PMS5003;57877;39.750;-104.894;2023-08-06T08:45:13;0;0;
70436;PMS5003;57877;39.750;-104.894;2023-08-06T08:47:39;0;0;
70436;PMS5003;57877;39.750;-104.894;2023-08-06T08:50:05;0;0;
70436;PMS5003;57877;39.750;-104.894;2023-08-06T08:52:31;0;0;
70436;PMS5003;57877;39.750;-104.894;2023-08-06T08:54:57;0;0;
70436;PMS5003;57877;39.750;-104.894;2023-08-06T08:57:23;0;0;
70436;PMS5003;57877;39.750;-104.894;2023-08-06T08:59:49;0;0;
70436;PMS5003;57877;39.750;-104.894;2023-08-06T09:02:15;0;0;
70436;PMS5003;57877;39.750;-104.894;2023-08-06T09:04:41;0;0;
70436;PMS5003;57877;39.750;-104.894;2023-08-06T09:07:07;0;0;
70436;PMS5003;57877;39.750;-104.894;2023-08-06T09:09:33;0;0;
70436;PMS5003;57877;39.750;-104.894;2023-08-06T09:12:00;0;0;
70436;PMS5003;57877;39.750;-104.894;2023-08-06T09:14:25;0;0;
70436;PMS5003;57877;39.750;-104.894;2023-08-06T09:16:51;0;0;
70436;PMS5003;57877;39.750;-104.894;2023-08-06T09:19:17;0;0;
70436;PMS5003;57877;39.750;-104.894;2023-08-06T09:21:43;0;0;
70436;PMS5003;57877;39.750;-104.894;2023-08-06T09:24:09;0;0;
70436;PMS5003;57877;39.750;-104.894;2023-08-06T09:26:35;0;0;
70436;PMS5003;57877;39.750;-104.894;2023-08-06T09:29:01;0;0;
70436;PMS5003;57877;39.750;-104.894;2023-08-06T09:33:53;0;0;
70436;PMS5003;57877;39.750;-104.894;2023-08-06T09:36:19;0;0;
70436;PMS5003;57877;39.750;-104.894;2023-08-06T09:38:45;0;0;
70436;PMS5003;57877;39.750;-104.894;2023-08-06T09:41:10;0;0;
70436;PMS5003;57877;39.750;-104.894;2023-08-06T09:43:40;0;0;
70436;PMS5003;57877;39.750;-104.894;2023-08-06T09:46:01;0;0;
70436;PMS5003;57877;39.750;-104.894;2023-08-06T09:48:27;0;0;
70436;PMS5003;57877;39.750;-104.894;2023-08-06T09:50:53;0;0;
70436;PMS5003;57877;39.750;-104.894;2023-08-06T09:53:19;0;0;
70436;PMS5003;57877;39.750;-104.894;2023-08-06T09:55:45;0;0;
70436;PMS5003;57877;39.750;-104.894;2023-08-06T09:58:11;0;0;
70436;PMS5003;57877;39.750;-104.894;2023-08-06T10:00:37;0;0;
70436;PMS5003;57877;39.750;-104.894;2023-08-06T10:03:03;0;0;
70436;PMS5003;57877;39.750;-104.894;2023-08-06T10:05:29;0;0;
70436;PMS5003;57877;39.750;-104.894;2023-08-06T10:07:55;0;0;
70436;PMS5003;57877;39.750;-104.894;2023-08-06T10:10:21;0;0;
70436;PMS5003;57877;39.750;-104.894;2023-08-06T10:12:48;0;0;
70436;PMS5003;57877;39.750;-104.894;2023-08-06T10:15:13;0;0;
70436;PMS5003;57877;39.750;-104.894;2023-08-06T10:17:39;0;0;
70436;PMS5003;57877;39.750;-104.894;2023-08-06T10:20:05;0;0;
70436;PMS5003;57877;39.750;-104.894;2023-08-06T10:22:31;0;0;
70436;PMS5003;57877;39.750;-104.894;2023-08-06T10:24:58;0;0;
70436;PMS5003;57877;39.750;-104.894;2023-08-06T10:27:31;0;0;
70436;PMS5003;57877;39.750;-104.894;2023-08-06T10:29:49;0;0;
70436;PMS5003;57877;39.750;-104.894;2023-08-06T10:32:15;0;0;
70436;PMS5003;57877;39.750;-104.894;2023-08-06T10:37:07;1;0;
70436;PMS5003;57877;39.750;-104.894;2023-08-06T10:39:33;0;0;
70436;PMS5003;57877;39.750;-104.894;2023-08-06T10:41:59;0;0;
70436;PMS5003;57877;39.750;-104.894;2023-08-06T10:44:25;0;0;
70436;PMS5003;57877;39.750;-104.894;2023-08-06T10:46:51;0;0;
70436;PMS5003;57877;39.750;-104.894;2023-08-06T10:49:17;0;0;
70436;PMS5003;57877;39.750;-104.894;2023-08-06T10:51:43;0;0;
70436;PMS5003;57877;39.750;-104.894;2023-08-06T10:54:09;0;0;
70436;PMS5003;57877;39.750;-104.894;2023-08-06T10:56:39;0;0;
70436;PMS5003;57877;39.750;-104.894;2023-08-06T10:59:01;0;0;
70436;PMS5003;57877;39.750;-104.894;2023-08-06T11:01:28;0;0;
70436;PMS5003;57877;39.750;-104.894;2023-08-06T11:03:53;0;0;
70436;PMS5003;57877;39.750;-104.894;2023-08-06T11:06:19;0;0;
70436;PMS5003;57877;39.750;-104.894;2023-08-06T11:08:47;0;0;
70436;PMS5003;57877;39.750;-104.894;2023-08-06T11:11:11;0;0;
70436;PMS5003;57877;39.750;-104.894;2023-08-06T11:13:37;0;0;
70436;PMS5003;57877;39.750;-104.894;2023-08-06T11:16:03;0;0;
70436;PMS5003;57877;39.750;-104.894;2023-08-06T11:18:29;0;0;
70436;PMS5003;57877;39.750;-104.894;2023-08-06T11:20:55;0;0;
70436;PMS5003;57877;39.750;-104.894;2023-08-06T11:23:21;0;0;
70436;PMS5003;57877;39.750;-104.894;2023-08-06T11:25:47;0;0;
70436;PMS5003;57877;39.750;-104.894;2023-08-06T11:28:13;1;0;
70436;PMS5003;57877;39.750;-104.894;2023-08-06T11:30:39;0;0;
70436;PMS5003;57877;39.750;-104.894;2023-08-06T11:33:06;0;0;
70436;PMS5003;57877;39.750;-104.894;2023-08-06T11:35:30;0;0;
70436;PMS5003;57877;39.750;-104.894;2023-08-06T11:37:56;0;0;
70436;PMS5003;57877;39.750;-104.894;2023-08-06T11:40:22;0;0;
70436;PMS5003;57877;39.750;-104.894;2023-08-06T11:42:48;0;0;
70436;PMS5003;57877;39.750;-104.894;2023-08-06T11:45:14;0;0;
70436;PMS5003;57877;39.750;-104.894;2023-08-06T11:47:40;0;0;
70436;PMS5003;57877;39.750;-104.894;2023-08-06T11:50:07;0;0;
70436;PMS5003;57877;39.750;-104.894;2023-08-06T11:52:32;0;0;
70436;PMS5003;57877;39.750;-104.894;2023-08-06T11:55:00;0;0;
70436;PMS5003;57877;39.750;-104.894;2023-08-06T11:57:24;0;0;
70436;PMS5003;57877;39.750;-104.894;2023-08-06T11:59:50;0;0;
70436;PMS5003;57877;39.750;-104.894;2023-08-06T12:02:16;0;0;
70436;PMS5003;57877;39.750;-104.894;2023-08-06T12:07:08;0;0;
70436;PMS5003;57877;39.750;-104.894;2023-08-06T12:09:34;0;0;
70436;PMS5003;57877;39.750;-104.894;2023-08-06T12:12:00;0;0;
70436;PMS5003;57877;39.750;-104.894;2023-08-06T12:14:26;0;0;
70436;PMS5003;57877;39.750;-104.894;2023-08-06T12:16:52;0;0;
70436;PMS5003;57877;39.750;-104.894;2023-08-06T12:19:18;0;0;
70436;PMS5003;57877;39.750;-104.894;2023-08-06T12:21:44;0;0;
70436;PMS5003;57877;39.750;-104.894;2023-08-06T12:24:10;0;0;
70436;PMS5003;57877;39.750;-104.894;2023-08-06T12:26:36;0;0;
70436;PMS5003;57877;39.750;-104.894;2023-08-06T12:29:02;0;0;
70436;PMS5003;57877;39.750;-104.894;2023-08-06T12:31:28;0;0;
70436;PMS5003;57877;39.750;-104.894;2023-08-06T12:33:54;0;0;
70436;PMS5003;57877;39.750;-104.894;2023-08-06T12:36:20;0;0;
70436;PMS5003;57877;39.750;-104.894;2023-08-06T12:38:46;0;0;
70436;PMS5003;57877;39.750;-104.894;2023-08-06T12:41:12;0;0;
70436;PMS5003;57877;39.750;-104.894;2023-08-06T12:43:38;0;0;
70436;PMS5003;57877;39.750;-104.894;2023-08-06T12:46:04;0;0;
70436;PMS5003;57877;39.750;-104.894;2023-08-06T12:48:30;0;0;
70436;PMS5003;57877;39.750;-104.894;2023-08-06T12:50:56;0;0;
70436;PMS5003;57877;39.750;-104.894;2023-08-06T12:53:22;0;0;
70436;PMS5003;57877;39.750;-104.894;2023-08-06T12:55:48;0;0;
70436;PMS5003;57877;39.750;-104.894;2023-08-06T12:58:14;0;0;
70436;PMS5003;57877;39.750;-104.894;2023-08-06T13:00:40;0;0;
70436;PMS5003;57877;39.750;-104.894;2023-08-06T13:03:06;0;0;
70436;PMS5003;57877;39.750;-104.894;2023-08-06T13:05:32;0;0;
70436;PMS5003;57877;39.750;-104.894;2023-08-06T13:07:58;0;0;
70436;PMS5003;57877;39.750;-104.894;2023-08-06T13:10:24;0;0;
70436;PMS5003;57877;39.750;-104.894;2023-08-06T13:12:50;0;0;
70436;PMS5003;57877;39.750;-104.894;2023-08-06T13:15:16;0;0;
70436;PMS5003;57877;39.750;-104.894;2023-08-06T13:17:42;0;0;
70436;PMS5003;57877;39.750;-104.894;2023-08-06T13:20:08;0;0;
70436;PMS5003;57877;39.750;-104.894;2023-08-06T13:22:34;0;0;
70436;PMS5003;57877;39.750;-104.894;2023-08-06T13:25:00;0;0;
70436;PMS5003;57877;39.750;-104.894;2023-08-06T13:27:26;0;0;
70436;PMS5003;57877;39.750;-104.894;2023-08-06T13:29:52;0;0;
70436;PMS5003;57877;39.750;-104.894;2023-08-06T13:32:18;0;0;
70436;PMS5003;57877;39.750;-104.894;2023-08-06T13:34:44;0;0;
70436;PMS5003;57877;39.750;-104.894;2023-08-06T13:37:10;0;0;
70436;PMS5003;57877;39.750;-104.894;2023-08-06T13:39:36;0;0;
70436;PMS5003;57877;39.750;-104.894;2023-08-06T13:42:02;0;0;
70436;PMS5003;57877;39.750;-104.894;2023-08-06T13:44:27;0;0;
70436;PMS5003;57877;39.750;-104.894;2023-08-06T13:46:53;1;1;
70436;PMS5003;57877;39.750;-104.894;2023-08-06T13:49:19;0;0;
70436;PMS5003;57877;39.750;-104.894;2023-08-06T13:51:45;0;0;
70436;PMS5003;57877;39.750;-104.894;2023-08-06T13:54:11;0;0;
70436;PMS5003;57877;39.750;-104.894;2023-08-06T13:56:37;1;1;
70436;PMS5003;57877;39.750;-104.894;2023-08-06T13:59:03;0;0;
70436;PMS5003;57877;39.750;-104.894;2023-08-06T14:01:29;1;1;
70436;PMS5003;57877;39.750;-104.894;2023-08-06T14:03:55;0;0;
70436;PMS5003;57877;39.750;-104.894;2023-08-06T14:06:21;2;2;
70436;PMS5003;57877;39.750;-104.894;2023-08-06T14:08:47;0;0;
70436;PMS5003;57877;39.750;-104.894;2023-08-06T14:11:13;0;0;
70436;PMS5003;57877;39.750;-104.894;2023-08-06T14:13:39;0;0;
70436;PMS5003;57877;39.750;-104.894;2023-08-06T14:16:05;0;0;
70436;PMS5003;57877;39.750;-104.894;2023-08-06T14:18:31;1;1;
70436;PMS5003;57877;39.750;-104.894;2023-08-06T14:20:57;2;2;
70436;PMS5003;57877;39.750;-104.894;2023-08-06T14:23:23;2;2;
70436;PMS5003;57877;39.750;-104.894;2023-08-06T14:25:49;1;1;
70436;PMS5003;57877;39.750;-104.894;2023-08-06T14:28:15;2;2;
70436;PMS5003;57877;39.750;-104.894;2023-08-06T14:30:41;3;3;
70436;PMS5003;57877;39.750;-104.894;2023-08-06T14:33:07;2;2;
70436;PMS5003;57877;39.750;-104.894;2023-08-06T14:35:33;5;4;
70436;PMS5003;57877;39.750;-104.894;2023-08-06T14:37:59;2;2;
70436;PMS5003;57877;39.750;-104.894;2023-08-06T14:40:25;3;3;
70436;PMS5003;57877;39.750;-104.894;2023-08-06T14:42:50;2;2;
70436;PMS5003;57877;39.750;-104.894;2023-08-06T14:45:16;2;2;
70436;PMS5003;57877;39.750;-104.894;2023-08-06T14:47:42;5;5;
70436;PMS5003;57877;39.750;-104.894;2023-08-06T14:50:08;5;5;
70436;PMS5003;57877;39.750;-104.894;2023-08-06T14:52:34;5;5;
70436;PMS5003;57877;39.750;-104.894;2023-08-06T14:55:00;5;4;
70436;PMS5003;57877;39.750;-104.894;2023-08-06T14:57:26;4;4;
70436;PMS5003;57877;39.750;-104.894;2023-08-06T14:59:52;4;4;
70436;PMS5003;57877;39.750;-104.894;2023-08-06T15:02:18;6;5;
70436;PMS5003;57877;39.750;-104.894;2023-08-06T15:04:44;6;6;
70436;PMS5003;57877;39.750;-104.894;2023-08-06T15:07:10;6;6;
70436;PMS5003;57877;39.750;-104.894;2023-08-06T15:09:36;4;4;
70436;PMS5003;57877;39.750;-104.894;2023-08-06T15:12:02;8;6;
70436;PMS5003;57877;39.750;-104.894;2023-08-06T15:14:28;6;6;
70436;PMS5003;57877;39.750;-104.894;2023-08-06T15:16:54;6;6;
70436;PMS5003;57877;39.750;-104.894;2023-08-06T15:19:20;5;5;
70436;PMS5003;57877;39.750;-104.894;2023-08-06T15:21:46;7;7;
70436;PMS5003;57877;39.750;-104.894;2023-08-06T15:24:12;7;6;
70436;PMS5003;57877;39.750;-104.894;2023-08-06T15:26:38;7;7;
70436;PMS5003;57877;39.750;-104.894;2023-08-06T15:29:04;6;5;
70436;PMS5003;57877;39.750;-104.894;2023-08-06T15:31:35;6;6;
70436;PMS5003;57877;39.750;-104.894;2023-08-06T15:33:56;7;7;
70436;PMS5003;57877;39.750;-104.894;2023-08-06T15:36:22;7;7;
70436;PMS5003;57877;39.750;-104.894;2023-08-06T15:38:48;5;5;
70436;PMS5003;57877;39.750;-104.894;2023-08-06T15:41:14;7;6;
70436;PMS5003;57877;39.750;-104.894;2023-08-06T15:43:40;8;8;
70436;PMS5003;57877;39.750;-104.894;2023-08-06T15:46:06;6;6;
70436;PMS5003;57877;39.750;-104.894;2023-08-06T15:48:32;7;7;
70436;PMS5003;57877;39.750;-104.894;2023-08-06T15:50:58;6;6;
70436;PMS5003;57877;39.750;-104.894;2023-08-06T15:53:23;8;8;
70436;PMS5003;57877;39.750;-104.894;2023-08-06T15:55:49;7;7;
70436;PMS5003;57877;39.750;-104.894;2023-08-06T15:58:15;6;6;